Time;durP1;ratioP1;P1;durP2;ratioP2;P2;SDS_P1;SDS_P2;PMS_P1;PMS_P2;Temp;Humidity;BMP_temperature;BMP_pressure;BME280_temperature;BME280_humidity;BME280_pressure;Samples;Min_cycle;Max_cycle;Signal;HPM_P1;HPM_P2
2022/11/16 00:01:00;;;;;;;10.17;7.00;;;;;;;15.70;61.44;97486.66;7002578;28;20218;-77
2022/11/16 00:04:21;;;;;;;13.23;7.30;;;;;;;15.72;61.71;97483.66;7002356;28;20205;-77
2022/11/16 00:07:44;;;;;;;8.73;7.23;;;;;;;15.87;61.22;97475.56;7001125;28;20226;-77
2022/11/16 00:11:07;;;;;;;8.77;6.67;;;;;;;15.74;61.22;97467.94;7001634;28;20298;-77
2022/11/16 00:14:30;;;;;;;8.03;6.53;;;;;;;15.67;61.31;97470.06;7001973;28;20274;-77
2022/11/16 00:17:52;;;;;;;8.90;6.33;;;;;;;15.80;61.24;97489.41;7001090;28;20339;-80
2022/11/16 00:21:13;;;;;;;7.53;6.60;;;;;;;15.62;61.41;97467.38;7001200;28;20288;-78
2022/11/16 00:24:36;;;;;;;7.50;6.47;;;;;;;15.75;61.62;97488.59;7001854;28;20292;-77
2022/11/16 00:27:58;;;;;;;8.13;5.53;;;;;;;15.76;61.91;97499.16;7001220;28;20339;-77
2022/11/16 00:31:19;;;;;;;9.13;6.27;;;;;;;15.48;62.37;97505.09;7001978;28;20657;-77
2022/11/16 00:34:41;;;;;;;8.73;6.40;;;;;;;15.49;62.63;97503.19;7002340;28;20317;-77
2022/11/16 00:38:02;;;;;;;10.07;6.03;;;;;;;15.59;62.43;97500.50;7002258;28;20264;-77
2022/11/16 00:41:25;;;;;;;10.13;6.67;;;;;;;15.14;63.18;97471.28;7000843;28;20345;-77
2022/11/16 00:44:47;;;;;;;10.17;6.47;;;;;;;15.51;62.88;97499.13;7002127;28;20616;-77
2022/11/16 00:48:08;;;;;;;10.60;6.37;;;;;;;15.50;62.77;97480.34;6996585;28;20313;-77
2022/11/16 00:51:30;;;;;;;9.23;6.70;;;;;;;15.79;62.08;97495.91;7001347;28;20665;-77
2022/11/16 00:54:51;;;;;;;8.20;6.17;;;;;;;15.79;62.10;97503.25;7000871;28;20317;-77
2022/11/16 00:58:15;;;;;;;7.40;5.97;;;;;;;15.33;62.95;97494.19;7000892;28;20294;-77
2022/11/16 01:01:36;;;;;;;9.20;6.50;;;;;;;15.30;63.22;97472.13;7000589;28;20210;-77
2022/11/16 01:04:58;;;;;;;7.57;6.50;;;;;;;15.42;63.17;97486.31;7002029;28;20352;-77
2022/11/16 01:08:19;;;;;;;9.80;7.10;;;;;;;15.59;62.67;97473.34;6993650;28;20234;-77
2022/11/16 01:15:23;;;;;;;10.60;6.37;;;;;;;15.63;62.46;97471.72;6972122;28;20649;-77
2022/11/16 01:18:47;;;;;;;9.57;6.83;;;;;;;15.72;62.02;97443.75;6991011;28;20296;-77
2022/11/16 01:22:09;;;;;;;8.33;5.80;;;;;;;15.49;61.69;97451.56;7000612;28;20287;-77
2022/11/16 01:25:30;;;;;;;7.17;5.00;;;;;;;15.27;62.04;97426.53;6999615;28;20252;-77
2022/11/16 01:28:52;;;;;;;7.53;5.43;;;;;;;15.27;62.15;97440.91;7000773;28;20245;-77
2022/11/16 01:32:15;;;;;;;5.40;4.50;;;;;;;15.37;61.88;97432.00;7000885;28;20332;-77
2022/11/16 01:35:37;;;;;;;5.23;4.63;;;;;;;15.56;61.47;97424.97;6999420;28;20259;-77
2022/11/16 01:38:58;;;;;;;6.23;4.57;;;;;;;15.58;61.23;97436.38;7000927;28;20718;-78
2022/11/16 01:42:21;;;;;;;6.20;5.13;;;;;;;15.50;61.39;97421.44;7000640;28;20223;-78
2022/11/16 01:45:43;;;;;;;5.60;4.60;;;;;;;15.72;61.00;97424.72;7000169;28;20361;-78
2022/11/16 01:49:10;;;;;;;5.13;4.63;;;;;;;15.71;60.69;97405.97;7000438;28;20269;-78
2022/11/16 01:52:33;;;;;;;5.63;4.67;;;;;;;15.44;60.67;97400.78;7000872;28;20309;-78
2022/11/16 01:55:55;;;;;;;5.97;4.90;;;;;;;15.25;61.86;97436.81;7000700;28;20267;-78
2022/11/16 01:59:17;;;;;;;4.87;4.40;;;;;;;15.25;62.46;97410.50;7004137;28;20211;-78
2022/11/16 02:02:38;;;;;;;5.30;4.80;;;;;;;14.98;63.15;97442.44;7006622;28;20216;-78
2022/11/16 02:06:11;;;;;;;7.33;5.30;;;;;;;15.25;62.18;97396.91;7006194;28;20260;-78
2022/11/16 02:09:55;;;;;;;7.53;5.20;;;;;;;15.37;61.43;97404.84;7007104;28;20646;-78
2022/11/16 02:13:26;;;;;;;6.13;5.20;;;;;;;15.52;62.12;97435.53;7007986;28;20198;-78
2022/11/16 02:16:53;;;;;;;6.03;5.43;;;;;;;15.80;60.92;97429.59;7006348;28;20263;-78
2022/11/16 02:20:44;;;;;;;6.33;5.70;;;;;;;15.62;60.72;97416.56;7005702;28;20318;-79
2022/11/16 02:24:26;;;;;;;6.10;4.50;;;;;;;15.78;60.44;97412.75;7006479;28;20252;-78
2022/11/16 02:28:11;;;;;;;5.20;4.73;;;;;;;15.60;60.23;97409.75;7005526;28;20272;-78
2022/11/16 02:31:36;;;;;;;5.03;4.10;;;;;;;15.64;59.97;97400.00;7005545;28;20282;-78
2022/11/16 02:35:03;;;;;;;6.80;4.40;;;;;;;15.70;60.16;97404.34;7005012;28;20286;-78
2022/11/16 02:38:28;;;;;;;5.10;4.67;;;;;;;15.86;59.74;97412.22;7004436;28;20191;-78
2022/11/16 02:41:50;;;;;;;5.47;4.53;;;;;;;15.89;59.46;97413.56;7004776;28;20241;-78
2022/11/16 02:45:16;;;;;;;4.87;4.33;;;;;;;15.97;59.47;97415.72;7003898;28;20647;-78
2022/11/16 02:48:42;;;;;;;6.83;4.87;;;;;;;15.81;59.77;97403.25;7004784;28;20240;-78
2022/11/16 02:52:04;;;;;;;5.57;4.57;;;;;;;15.39;60.89;97389.91;7004927;28;20246;-78
2022/11/16 02:55:27;;;;;;;5.70;4.53;;;;;;;15.42;61.78;97407.56;7004358;28;20238;-78
2022/11/16 02:58:48;;;;;;;5.27;4.13;;;;;;;15.68;60.72;97414.66;7005280;28;20725;-78
2022/11/16 03:02:17;;;;;;;4.57;3.87;;;;;;;15.63;60.22;97401.09;7005322;28;20310;-78
2022/11/16 03:05:44;;;;;;;5.47;4.17;;;;;;;15.64;60.66;97421.72;7004135;28;20315;-78
2022/11/16 03:09:08;;;;;;;5.87;4.83;;;;;;;15.91;59.79;97420.38;7004818;28;20321;-78
2022/11/16 03:12:31;;;;;;;4.57;4.00;;;;;;;15.82;60.06;97416.56;7004720;28;20300;-78
2022/11/16 03:15:54;;;;;;;4.90;4.10;;;;;;;15.89;60.00;97419.00;7004093;28;20368;-78
2022/11/16 03:19:20;;;;;;;6.20;4.70;;;;;;;15.64;60.64;97405.44;7004416;28;20302;-78
2022/11/16 03:22:44;;;;;;;3.80;3.50;;;;;;;15.64;60.76;97406.22;7003880;28;20202;-78
2022/11/16 03:26:08;;;;;;;4.27;3.60;;;;;;;15.62;60.94;97399.47;7004370;28;20296;-78
2022/11/16 03:29:31;;;;;;;4.80;4.00;;;;;;;15.62;61.11;97396.75;7004295;28;20208;-78
2022/11/16 03:32:56;;;;;;;5.27;4.77;;;;;;;15.63;61.33;97403.81;7004112;28;20343;-78
2022/11/16 03:36:22;;;;;;;5.73;4.70;;;;;;;15.63;61.54;97407.31;7004156;28;20312;-78
2022/11/16 03:39:45;;;;;;;6.17;4.67;;;;;;;15.68;61.12;97410.03;7004397;28;20754;-78
2022/11/16 03:43:07;;;;;;;6.63;4.43;;;;;;;14.99;63.79;97410.69;7004111;28;20699;-78
2022/11/16 03:46:28;;;;;;;5.43;4.43;;;;;;;14.81;64.61;97411.97;7003687;28;20314;-78
2022/11/16 03:49:50;;;;;;;5.70;4.50;;;;;;;14.62;65.61;97405.38;7004244;28;20301;-78
2022/11/16 03:53:11;;;;;;;6.80;4.10;;;;;;;14.49;65.40;97386.06;7004823;28;20235;-78
2022/11/16 03:56:34;;;;;;;4.40;4.00;;;;;;;15.08;63.95;97403.66;7004892;28;20302;-78
2022/11/16 03:59:56;;;;;;;4.60;4.10;;;;;;;15.54;62.75;97398.09;7005495;28;20260;-79
2022/11/16 04:03:17;;;;;;;4.57;4.17;;;;;;;14.68;64.76;97385.34;7004221;28;20270;-79
2022/11/16 04:25:05;;;;;;;5.40;4.60;;;;;;;15.59;62.35;97421.72;6967737;28;20197;-80
2022/11/16 04:28:29;;;;;;;5.27;4.67;;;;;;;14.91;64.21;97422.03;7008751;28;20291;-79
2022/11/16 04:39:10;;;;;;;5.83;4.73;;;;;;;15.85;62.20;97426.06;7001317;28;20176;-76
2022/11/16 04:42:31;;;;;;;6.93;5.17;;;;;;;15.88;61.69;97425.53;7001711;28;20296;-79
2022/11/16 04:49:34;;;;;;;7.50;5.67;;;;;;;15.61;62.88;97436.66;7002354;28;20185;-79
2022/11/16 04:52:55;;;;;;;6.27;5.40;;;;;;;15.90;62.31;97442.38;7001953;28;20871;-79
2022/11/16 04:56:17;;;;;;;6.60;6.00;;;;;;;15.92;61.88;97445.66;7000903;28;20321;-79
2022/11/16 04:59:38;;;;;;;10.03;7.27;;;;;;;15.35;62.96;97437.72;7001990;28;20287;-79
2022/11/16 05:03:00;;;;;;;7.67;6.87;;;;;;;15.71;62.98;97438.56;7001267;28;20310;-79
2022/11/16 05:06:23;;;;;;;7.47;6.73;;;;;;;15.30;63.48;97407.81;7001856;28;20257;-79
2022/11/16 05:09:45;;;;;;;9.70;7.40;;;;;;;15.52;63.76;97438.25;7001406;28;20299;-79
2022/11/16 05:13:07;;;;;;;10.63;7.17;;;;;;;15.55;63.41;97437.75;7001342;28;20374;-80
2022/11/16 05:16:29;;;;;;;7.13;6.43;;;;;;;15.79;62.81;97427.97;7002212;28;20336;-79
2022/11/16 05:27:13;;;;;;;7.90;7.20;;;;;;;15.48;63.77;97447.22;7000074;28;20213;-79
2022/11/16 05:30:34;;;;;;;8.27;7.50;;;;;;;15.55;63.58;97445.06;7002569;28;20678;-77
2022/11/16 05:33:56;;;;;;;9.50;8.50;;;;;;;15.65;63.13;97445.91;7000061;28;20293;-79
2022/11/16 05:37:19;;;;;;;10.60;8.23;;;;;;;15.56;63.68;97428.50;7000133;28;20298;-80
2022/11/16 05:40:42;;;;;;;11.43;9.93;;;;;;;15.09;64.45;97438.69;7001552;28;20198;-81
2022/11/16 05:44:04;;;;;;;10.27;8.87;;;;;;;15.16;64.76;97441.94;7002595;28;20271;-81
2022/11/16 05:47:25;;;;;;;8.70;7.00;;;;;;;15.08;65.43;97422.66;7001327;28;20615;-77
2022/11/16 05:50:47;;;;;;;7.17;6.47;;;;;;;15.70;64.38;97448.59;6999826;28;20291;-78
2022/11/16 05:54:11;;;;;;;7.90;7.10;;;;;;;15.72;63.76;97442.91;7000071;28;20255;-78
2022/11/16 05:57:34;;;;;;;7.73;7.00;;;;;;;15.83;63.74;97448.09;6999047;28;20312;-78
2022/11/16 06:00:55;;;;;;;10.17;7.77;;;;;;;15.54;63.83;97446.97;6999867;28;20241;-79
2022/11/16 06:04:17;;;;;;;8.00;7.20;;;;;;;15.76;63.49;97423.06;7001304;28;20201;-78
2022/11/16 06:07:39;;;;;;;9.07;7.73;;;;;;;15.96;62.88;97449.44;6998881;28;20332;-77
2022/11/16 06:11:02;;;;;;;11.27;9.93;;;;;;;15.58;63.77;97439.91;6998526;28;22222;-78
2022/11/16 06:14:25;;;;;;;5.70;5.20;;;;;;;15.35;65.41;97442.31;7000201;28;20206;-78
2022/11/16 06:17:47;;;;;;;9.03;6.97;;;;;;;15.61;64.13;97446.69;7001613;28;20831;-78
2022/11/16 06:21:09;;;;;;;11.43;10.30;;;;;;;15.29;64.24;97440.66;7002261;28;20242;-78
2022/11/16 06:24:31;;;;;;;13.40;10.83;;;;;;;15.16;64.89;97447.38;7003066;28;20229;-78
2022/11/16 06:27:52;;;;;;;12.17;10.77;;;;;;;15.05;65.80;97453.84;7002054;28;20317;-78
2022/11/16 06:31:15;;;;;;;11.33;9.00;;;;;;;15.51;64.73;97454.84;7003477;28;20302;-78
2022/11/16 06:34:37;;;;;;;10.73;9.63;;;;;;;15.51;63.93;97457.56;7004039;28;20269;-79
2022/11/16 06:38:03;;;;;;;13.70;11.03;;;;;;;15.31;64.31;97449.31;7004573;28;20226;-78
2022/11/16 06:41:24;;;;;;;13.07;11.30;;;;;;;15.48;64.00;97466.25;7004882;28;20207;-78
2022/11/16 06:44:46;;;;;;;12.53;11.20;;;;;;;15.32;64.70;97464.53;7005072;28;20247;-79
2022/11/16 06:48:09;;;;;;;15.03;12.37;;;;;;;15.32;64.81;97465.41;7007011;28;20701;-78
2022/11/16 06:51:30;;;;;;;10.67;9.50;;;;;;;15.56;64.35;97476.56;7007702;28;20248;-78
2022/11/16 06:54:52;;;;;;;13.07;11.33;;;;;;;15.81;63.56;97476.63;7006988;28;20212;-79
2022/11/16 06:58:14;;;;;;;19.70;16.10;;;;;;;15.57;63.51;97484.47;7006817;28;20283;-79
2022/11/16 07:01:35;;;;;;;17.90;14.53;;;;;;;14.87;65.37;97465.19;7006694;28;20211;-79
2022/11/16 07:04:58;;;;;;;17.67;14.90;;;;;;;15.14;65.09;97465.03;7006580;28;20217;-79
2022/11/16 07:08:20;;;;;;;16.20;14.43;;;;;;;15.57;63.96;97495.31;7007452;28;20237;-79
2022/11/16 07:11:41;;;;;;;20.37;15.03;;;;;;;15.43;64.28;97501.53;7007080;28;20680;-79
2022/11/16 07:15:03;;;;;;;17.20;14.47;;;;;;;15.33;64.72;97491.47;7008632;28;20287;-79
2022/11/16 07:18:25;;;;;;;15.70;11.93;;;;;;;15.39;64.54;97484.16;7007684;28;20259;-79
2022/11/16 07:21:48;;;;;;;14.13;11.23;;;;;;;15.40;64.74;97518.38;7007434;28;20195;-78
2022/11/16 07:25:12;;;;;;;18.67;15.60;;;;;;;15.32;64.88;97524.28;7010060;28;20276;-79
2022/11/16 07:28:34;;;;;;;18.43;12.33;;;;;;;14.29;67.50;97461.88;7010409;28;20586;-79
2022/11/16 07:31:55;;;;;;;13.97;10.63;;;;;;;14.72;67.96;97502.28;7010774;28;20232;-78
2022/11/16 07:35:17;;;;;;;8.43;7.53;;;;;;;14.88;67.65;97520.28;7008861;28;20227;-78
2022/11/16 07:38:40;;;;;;;14.10;11.90;;;;;;;15.52;65.16;97513.53;7006087;28;20264;-78
2022/11/16 07:42:02;;;;;;;12.07;7.80;;;;;;;15.62;64.58;97508.94;7005887;28;20212;-79
2022/11/16 07:45:23;;;;;;;9.20;5.70;;;;;;;15.94;63.82;97530.47;7005687;28;20714;-78
2022/11/16 07:48:45;;;;;;;7.20;5.40;;;;;;;15.80;63.64;97534.78;7007618;28;20301;-78
2022/11/16 07:52:08;;;;;;;5.00;4.60;;;;;;;15.86;63.99;97536.44;6996925;28;20656;-78
2022/11/16 07:55:32;;;;;;;6.60;4.50;;;;;;;16.01;63.05;97515.53;6997745;28;20666;-77
2022/11/16 07:58:53;;;;;;;5.07;4.67;;;;;;;16.16;62.64;97529.13;6990655;28;20253;-77
2022/11/16 08:02:15;;;;;;;4.63;3.53;;;;;;;16.10;62.88;97541.06;6999424;28;20320;-78
2022/11/16 08:05:36;;;;;;;3.90;3.60;;;;;;;16.10;62.52;97540.28;7006198;28;20231;-79
2022/11/16 08:08:58;;;;;;;4.20;3.60;;;;;;;15.99;62.62;97531.28;7007329;28;20215;-79
2022/11/16 08:12:21;;;;;;;4.53;3.10;;;;;;;16.18;62.02;97554.16;7007010;28;20202;-78
2022/11/16 08:15:42;;;;;;;4.57;4.13;;;;;;;16.31;61.73;97547.34;7005672;28;20265;-78
2022/11/16 08:19:04;;;;;;;4.50;2.97;;;;;;;16.43;60.92;97531.59;7006760;28;20233;-79
2022/11/16 08:22:26;;;;;;;3.30;3.00;;;;;;;16.63;60.40;97565.06;7011757;28;20345;-79
2022/11/16 08:25:47;;;;;;;3.63;2.93;;;;;;;16.74;59.78;97533.22;7015942;28;20227;-79
2022/11/16 08:29:10;;;;;;;3.60;3.20;;;;;;;16.54;60.39;97528.59;7006962;28;20303;-78
2022/11/16 08:32:31;;;;;;;3.73;2.70;;;;;;;16.02;60.38;97554.38;7005338;28;20341;-78
2022/11/16 08:35:53;;;;;;;6.13;3.10;;;;;;;16.53;59.93;97554.19;7004689;28;20246;-77
2022/11/16 08:39:15;;;;;;;2.53;2.33;;;;;;;16.76;59.66;97553.59;7005168;28;20218;-78
2022/11/16 08:42:37;;;;;;;3.03;2.50;;;;;;;16.85;58.95;97527.47;7005437;28;20203;-77
2022/11/16 08:46:00;;;;;;;3.90;2.67;;;;;;;17.22;58.52;97559.78;7004533;28;20220;-77
2022/11/16 08:49:22;;;;;;;2.70;2.50;;;;;;;17.09;58.01;97550.28;7004512;28;20208;-78
2022/11/16 08:52:43;;;;;;;2.53;2.33;;;;;;;16.96;57.66;97569.91;7003247;28;20212;-77
2022/11/16 08:56:06;;;;;;;2.63;2.00;;;;;;;16.45;58.24;97562.09;7003195;28;20373;-78
2022/11/16 08:59:27;;;;;;;2.20;2.00;;;;;;;16.63;58.68;97566.97;7003936;28;20345;-77
2022/11/16 09:02:50;;;;;;;2.80;2.50;;;;;;;17.25;57.47;97576.38;7003870;28;20310;-78
2022/11/16 09:06:13;;;;;;;2.60;2.20;;;;;;;16.90;56.15;97564.75;7004143;28;20294;-78
2022/11/16 09:09:36;;;;;;;4.87;2.23;;;;;;;17.23;55.54;97586.72;7003557;28;20295;-78
2022/11/16 09:12:57;;;;;;;4.83;2.33;;;;;;;17.19;55.57;97555.69;7003918;28;20212;-78
2022/11/16 09:16:20;;;;;;;2.87;2.17;;;;;;;17.66;54.96;97561.53;7003140;28;20228;-78
2022/11/16 09:19:43;;;;;;;2.10;1.90;;;;;;;17.88;54.31;97577.50;7003912;28;20659;-79
2022/11/16 09:23:04;;;;;;;3.13;2.20;;;;;;;17.93;54.41;97577.47;7004470;28;20220;-78
2022/11/16 09:26:26;;;;;;;2.87;2.00;;;;;;;17.94;53.25;97554.56;7002238;28;20694;-78
2022/11/16 09:29:47;;;;;;;2.93;1.97;;;;;;;18.21;53.38;97535.84;7002148;28;20240;-79
2022/11/16 09:33:09;;;;;;;4.60;2.23;;;;;;;17.94;53.94;97563.56;7001690;28;20215;-78
2022/11/16 09:36:32;;;;;;;5.20;2.97;;;;;;;18.67;53.71;97573.41;7001341;28;20290;-78
2022/11/16 09:39:54;;;;;;;2.77;1.93;;;;;;;18.85;51.85;97577.34;7002261;28;20216;-76
2022/11/16 09:43:23;;;;;;;3.80;1.90;;;;;;;18.28;51.18;97575.31;7001452;28;20216;-76
2022/11/16 09:46:46;;;;;;;2.50;2.27;;;;;;;18.83;52.25;97583.13;7000984;28;20252;-78
2022/11/16 09:50:23;;;;;;;2.37;1.80;;;;;;;19.47;49.53;97572.63;7003220;28;20676;-78
2022/11/16 09:53:49;;;;;;;2.10;1.80;;;;;;;19.56;49.25;97570.88;7002237;28;20217;-76
2022/11/16 09:57:14;;;;;;;1.70;1.60;;;;;;;19.27;49.72;97566.59;7000854;28;20493;-76
2022/11/16 10:00:36;;;;;;;3.17;1.67;;;;;;;18.80;51.26;97564.56;7001811;28;20655;-76
2022/11/16 10:04:01;;;;;;;3.13;2.00;;;;;;;18.66;51.47;97558.16;7001567;28;20212;-76
2022/11/16 10:07:25;;;;;;;3.33;2.03;;;;;;;18.65;50.53;97575.63;7001414;28;20367;-78
2022/11/16 10:10:55;;;;;;;2.03;1.77;;;;;;;18.82;50.92;97576.00;7003549;28;20283;-78
2022/11/16 10:14:29;;;;;;;3.77;2.30;;;;;;;18.77;50.96;97556.13;7005625;28;20237;-78
2022/11/16 10:18:02;;;;;;;3.90;2.70;;;;;;;18.85;50.80;97566.41;7001057;28;20247;-78
2022/11/16 10:21:34;;;;;;;6.53;2.40;;;;;;;18.74;51.15;97571.16;7005819;28;20222;-78
2022/11/16 10:24:57;;;;;;;2.13;1.73;;;;;;;18.88;49.68;97568.59;7008713;28;20664;-78
2022/11/16 10:28:44;;;;;;;3.57;1.90;;;;;;;18.68;51.29;97555.09;7003326;28;20355;-78
2022/11/16 10:32:17;;;;;;;2.87;1.70;;;;;;;18.75;52.04;97556.41;6998223;28;20282;-78
2022/11/16 10:35:42;;;;;;;2.47;1.80;;;;;;;18.49;52.66;97559.66;7006376;28;20292;-77
2022/11/16 10:39:09;;;;;;;1.97;1.80;;;;;;;18.95;51.99;97560.88;6990152;28;20235;-77
2022/11/16 10:42:38;;;;;;;3.30;1.80;;;;;;;19.57;49.88;97555.28;6982488;28;20226;-78
2022/11/16 10:46:06;;;;;;;2.60;2.40;;;;;;;18.99;49.92;97524.50;7006654;28;20225;-80
2022/11/16 10:49:32;;;;;;;5.13;1.80;;;;;;;19.51;49.37;97545.53;7011574;28;20557;-76
2022/11/16 10:52:54;;;;;;;2.07;1.87;;;;;;;19.15;48.12;97534.16;7010290;28;20210;-76
2022/11/16 10:56:19;;;;;;;11.73;5.50;;;;;;;19.12;49.57;97525.72;7010149;28;20225;-78
2022/11/16 10:59:46;;;;;;;16.93;6.20;;;;;;;18.98;51.06;97525.59;7009069;28;20702;-77
2022/11/16 11:03:10;;;;;;;33.00;13.63;;;;;;;18.89;51.27;97527.34;7012968;28;20271;-78
2022/11/16 11:06:32;;;;;;;4.00;2.40;;;;;;;19.12;50.77;97523.81;7005892;28;20225;-79
2022/11/16 11:09:54;;;;;;;5.47;3.33;;;;;;;19.22;51.01;97520.97;7005611;28;20212;-78
2022/11/16 11:13:26;;;;;;;4.53;3.10;;;;;;;19.97;48.59;97511.78;7006121;28;20346;-78
2022/11/16 11:16:52;;;;;;;3.43;2.17;;;;;;;20.15;48.49;97521.13;7004925;28;20603;-78
2022/11/16 11:20:22;;;;;;;3.47;1.93;;;;;;;20.03;48.72;97518.81;7005367;28;20265;-78
2022/11/16 11:23:45;;;;;;;3.33;2.50;;;;;;;20.05;48.22;97511.09;7006773;28;20225;-78
2022/11/16 11:27:07;;;;;;;2.97;2.07;;;;;;;20.40;47.48;97502.38;7007186;28;20246;-79
2022/11/16 11:30:28;;;;;;;3.17;2.20;;;;;;;19.78;47.63;97493.75;7007072;28;20714;-79
2022/11/16 11:33:52;;;;;;;1.70;1.60;;;;;;;20.41;47.91;97498.50;7005797;28;20575;-79
2022/11/16 11:37:17;;;;;;;3.87;1.97;;;;;;;20.72;46.69;97504.28;7004950;28;20277;-78
2022/11/16 11:40:40;;;;;;;2.23;1.67;;;;;;;20.53;45.97;97500.81;7017200;28;20682;-79
2022/11/16 11:44:03;;;;;;;2.77;1.73;;;;;;;21.08;44.86;97475.13;7033325;28;20201;-79
2022/11/16 11:47:30;;;;;;;2.07;1.77;;;;;;;21.06;44.52;97477.38;7033012;28;20824;-78
2022/11/16 11:50:54;;;;;;;3.30;2.10;;;;;;;20.95;44.92;97495.13;7032977;28;20209;-79
2022/11/16 11:54:21;;;;;;;4.27;3.00;;;;;;;19.87;46.95;97475.56;6999223;28;20238;-79
2022/11/16 11:57:44;;;;;;;2.10;1.90;;;;;;;19.80;47.62;97481.41;6997022;28;20973;-79
2022/11/16 12:01:31;;;;;;;3.27;1.70;;;;;;;20.68;45.64;97490.38;6989422;28;20214;-79
2022/11/16 12:05:14;;;;;;;2.27;1.77;;;;;;;20.97;44.62;97470.97;7004954;28;20271;-79
2022/11/16 12:08:50;;;;;;;5.00;1.87;;;;;;;20.43;45.35;97485.34;6983009;28;20198;-79
2022/11/16 12:12:23;;;;;;;1.87;1.77;;;;;;;19.81;46.85;97463.06;6983522;28;20697;-79
2022/11/16 12:16:00;;;;;;;2.80;1.73;;;;;;;19.90;47.98;97472.22;6989719;28;20237;-79
2022/11/16 12:19:38;;;;;;;2.70;1.90;;;;;;;19.65;47.95;97467.97;7003716;28;20256;-79
2022/11/16 12:23:21;;;;;;;2.70;2.03;;;;;;;19.34;48.99;97474.13;7004181;28;20248;-79
2022/11/16 12:26:51;;;;;;;3.30;1.90;;;;;;;19.17;47.62;97460.09;7001104;28;20258;-79
2022/11/16 12:30:17;;;;;;;1.57;1.40;;;;;;;19.04;47.67;97469.00;7004216;28;20339;-79
2022/11/16 12:33:45;;;;;;;2.40;1.90;;;;;;;19.46;45.98;97467.09;7004223;28;20741;-79
2022/11/16 12:37:13;;;;;;;3.20;1.80;;;;;;;19.62;45.04;97463.06;7003104;28;20238;-79
2022/11/16 12:40:43;;;;;;;5.40;1.90;;;;;;;19.63;44.31;97452.94;7004290;28;20282;-79
2022/11/16 12:44:06;;;;;;;2.20;1.87;;;;;;;19.62;45.93;97457.59;7005894;28;20213;-79
2022/11/16 12:47:34;;;;;;;3.80;2.00;;;;;;;19.85;47.06;97448.50;7004087;28;20249;-80
2022/11/16 12:50:58;;;;;;;2.20;2.00;;;;;;;20.03;46.21;97455.88;7001351;28;20729;-79
2022/11/16 12:54:31;;;;;;;3.43;2.23;;;;;;;20.15;45.70;97441.75;7003405;28;20248;-79
2022/11/16 12:58:02;;;;;;;4.53;1.90;;;;;;;20.06;44.96;97444.38;7002202;28;20324;-79
2022/11/16 13:01:29;;;;;;;3.47;1.90;;;;;;;19.87;44.77;97449.00;7003442;28;20339;-79
2022/11/16 13:04:56;;;;;;;3.80;1.77;;;;;;;19.15;46.38;97449.44;7002734;28;20675;-79
2022/11/16 13:08:21;;;;;;;1.90;1.67;;;;;;;19.56;44.97;97453.31;7002858;28;20197;-79
2022/11/16 13:11:44;;;;;;;2.13;1.33;;;;;;;19.76;44.35;97431.13;7002244;28;20732;-79
2022/11/16 13:15:17;;;;;;;1.83;1.60;;;;;;;19.91;44.11;97433.63;7001898;28;20257;-79
2022/11/16 13:18:42;;;;;;;3.10;1.60;;;;;;;19.74;44.23;97432.56;6973893;28;20214;-79
2022/11/16 13:22:12;;;;;;;2.00;1.67;;;;;;;19.76;44.89;97435.78;6974397;28;20214;-79
2022/11/16 13:25:38;;;;;;;1.37;1.30;;;;;;;19.50;44.81;97434.53;6974194;28;20621;-79
2022/11/16 13:29:04;;;;;;;3.37;1.67;;;;;;;19.49;45.09;97421.97;6974411;28;20194;-79
2022/11/16 13:32:37;;;;;;;3.90;2.20;;;;;;;18.85;45.36;97421.69;6974920;28;20191;-79
2022/11/16 13:35:58;;;;;;;1.90;1.80;;;;;;;19.36;45.43;97420.81;6975094;28;20368;-79
2022/11/16 13:39:56;;;;;;;1.40;1.30;;;;;;;18.07;47.20;97420.28;6975347;28;20303;-79
2022/11/16 13:43:19;;;;;;;5.43;1.80;;;;;;;19.28;43.91;97409.72;6974057;28;20213;-80
2022/11/16 13:46:44;;;;;;;2.47;1.80;;;;;;;19.91;43.12;97408.19;6979964;28;20220;-78
2022/11/16 13:50:17;;;;;;;3.80;1.90;;;;;;;19.92;43.34;97413.38;7017081;28;20208;-78
2022/11/16 13:53:40;;;;;;;2.87;1.70;;;;;;;19.89;41.80;97408.50;7003827;28;20564;-79
2022/11/16 13:57:05;;;;;;;2.50;1.60;;;;;;;20.18;42.13;97417.38;6993779;28;20583;-78
2022/11/16 14:00:30;;;;;;;4.60;2.07;;;;;;;18.62;48.44;97409.66;7000451;28;20209;-78
2022/11/16 14:04:30;;;;;;;2.60;1.80;;;;;;;17.84;51.17;97415.56;7002280;28;20197;-77
2022/11/16 14:07:52;;;;;;;2.43;2.10;;;;;;;17.75;52.58;97420.00;7001146;28;20688;-78
2022/11/16 14:11:34;;;;;;;7.73;2.07;;;;;;;18.05;52.11;97426.00;7002192;28;20836;-78
2022/11/16 14:15:05;;;;;;;4.30;2.20;;;;;;;17.84;52.19;97413.66;7001309;28;20243;-78
2022/11/16 14:18:35;;;;;;;3.00;1.90;;;;;;;18.10;51.50;97400.63;7001354;28;20382;-78
2022/11/16 14:22:01;;;;;;;2.30;2.00;;;;;;;18.09;51.80;97405.25;7001992;28;20190;-78
2022/11/16 14:25:39;;;;;;;3.17;2.30;;;;;;;17.84;52.45;97410.94;7001405;28;20238;-78
2022/11/16 14:29:18;;;;;;;3.67;2.10;;;;;;;17.31;53.81;97416.44;7005234;28;20247;-78
2022/11/16 14:32:44;;;;;;;3.37;1.93;;;;;;;18.17;52.48;97401.09;6998074;28;20208;-78
2022/11/16 14:36:08;;;;;;;3.33;2.40;;;;;;;18.40;49.67;97390.25;7000607;28;20232;-78
2022/11/16 14:39:33;;;;;;;1.53;1.40;;;;;;;18.89;47.37;97381.78;7001807;28;20359;-78
2022/11/16 14:42:56;;;;;;;2.00;1.80;;;;;;;18.73;46.72;97374.88;7001029;28;20240;-78
2022/11/16 14:46:21;;;;;;;3.07;2.03;;;;;;;18.98;44.60;97383.56;7000943;28;20226;-78
2022/11/16 14:49:43;;;;;;;4.83;2.57;;;;;;;18.53;48.39;97375.94;6992111;28;20198;-78
2022/11/16 14:53:07;;;;;;;2.60;2.40;;;;;;;18.16;50.00;97366.75;6973491;28;20234;-78
2022/11/16 14:56:29;;;;;;;3.33;2.27;;;;;;;18.52;49.51;97389.88;6973503;28;20591;-79
2022/11/16 15:00:06;;;;;;;2.20;2.00;;;;;;;18.81;49.30;97390.63;6974360;28;20816;-79
2022/11/16 15:03:31;;;;;;;3.43;2.13;;;;;;;18.78;48.96;97356.50;6974062;28;20305;-79
2022/11/16 15:06:56;;;;;;;2.67;2.10;;;;;;;18.84;49.01;97359.97;6989078;28;20233;-79
2022/11/16 15:10:21;;;;;;;3.13;2.13;;;;;;;18.80;49.27;97353.50;6978301;28;20221;-79
2022/11/16 15:13:45;;;;;;;6.80;2.67;;;;;;;18.81;48.90;97355.91;6979107;28;20260;-79
2022/11/16 15:17:07;;;;;;;3.87;2.27;;;;;;;18.55;49.45;97332.78;6993488;28;20275;-82
2022/11/16 15:20:34;;;;;;;3.03;2.30;;;;;;;18.74;49.37;97369.13;7005235;28;20250;-79
2022/11/16 15:23:56;;;;;;;4.40;2.23;;;;;;;17.89;51.24;97356.38;7006294;28;20277;-78
2022/11/16 15:27:26;;;;;;;4.37;2.30;;;;;;;18.15;51.09;97354.19;7002127;28;20227;-79
2022/11/16 15:30:50;;;;;;;4.70;2.20;;;;;;;18.12;50.74;97344.69;7005857;28;20207;-79
2022/11/16 15:34:12;;;;;;;3.37;2.30;;;;;;;17.75;51.64;97357.31;7006207;28;20234;-79
2022/11/16 15:37:33;;;;;;;4.73;2.77;;;;;;;17.65;52.69;97365.56;7005176;28;20291;-79
2022/11/16 15:40:56;;;;;;;5.10;2.97;;;;;;;17.75;51.85;97376.38;7005544;28;20316;-79
2022/11/16 15:44:21;;;;;;;4.10;2.90;;;;;;;17.61;51.81;97372.66;7005483;28;20306;-78
2022/11/16 15:47:44;;;;;;;5.00;3.07;;;;;;;17.43;52.76;97378.78;7005132;28;20254;-80
2022/11/16 15:51:08;;;;;;;5.33;3.63;;;;;;;16.88;53.92;97354.59;7006147;28;20206;-80
2022/11/16 15:55:02;;;;;;;4.43;2.93;;;;;;;16.64;54.64;97348.19;7006758;28;20665;-79
2022/11/16 15:58:15;;;;;;;5.53;2.90;;;;;;;16.70;53.60;97333.44;6999172;28;20760;-80
2022/11/16 16:01:42;;;;;;;4.87;2.97;;;;;;;16.80;53.21;97347.81;6977399;28;20736;-80
2022/11/16 16:05:04;;;;;;;3.27;2.67;;;;;;;16.46;54.51;97367.84;6975759;28;20279;-80
2022/11/16 16:08:28;;;;;;;3.20;2.60;;;;;;;16.24;55.42;97364.59;6977121;28;20274;-80
2022/11/16 16:11:50;;;;;;;5.07;2.73;;;;;;;16.02;55.50;97340.44;6975511;28;20210;-79
2022/11/16 16:15:23;;;;;;;3.63;2.13;;;;;;;16.39;54.66;97359.94;6977808;28;20227;-80
2022/11/16 16:18:46;;;;;;;5.90;2.70;;;;;;;16.08;54.76;97352.13;6972525;28;20235;-80
2022/11/16 16:22:13;;;;;;;3.00;2.40;;;;;;;15.90;55.18;97353.50;6974251;28;20278;-80
2022/11/16 16:25:36;;;;;;;3.77;2.90;;;;;;;16.04;54.43;97353.78;6973744;28;20907;-80
2022/11/16 16:28:57;;;;;;;11.40;8.17;;;;;;;15.86;54.97;97365.22;6975304;28;20245;-80
2022/11/16 16:32:23;;;;;;;8.00;4.77;;;;;;;15.76;55.78;97376.88;6982268;28;20230;-80
2022/11/16 16:35:48;;;;;;;7.67;3.63;;;;;;;15.24;56.03;97360.00;7001948;28;20234;-80
2022/11/16 16:39:10;;;;;;;4.57;3.43;;;;;;;14.70;58.33;97355.25;7003540;28;20709;-79
2022/11/16 16:42:31;;;;;;;6.43;3.30;;;;;;;15.02;57.16;97353.16;7003343;28;20238;-80